Latest Weather Observations for Edinburgh

IDS60801

Issued at 11:01 am CST Saturday 29 April 2017 (issued every 30 minutes, with the page automatically refreshed every 10 minutes)

About weather observations | Map of weather stations | Latest weather observations for SA | Other Formats
Station Details ID: 023083 Name: EDINBURGH RAAF Lat: -34.71 Lon: 138.62 Height: 16.54 m
Data from the previous 72 hours. | See also: Recent months at Edinburgh
Date/Time
CST
Temp
°C
App
Temp
°C
Dew
Point
°C
Rel
Hum
%
Delta-T
°C
Wind Press
QNH
hPa
Press
MSL
hPa
Rain since
9am
mm
Dir  Spd
km/h
Gust
km/h
Spd
kts
Gust
kts
29/11:00am 16.4 15.4 10.3 67 3.2 ENE 6 9 3 5 1027.2 1027.2 0.0
29/10:30am 16.1 16.0 10.8 71 2.8 NNE 2 7 1 4 1027.3 1027.3 0.0
29/10:00am 15.6 14.6 11.0 74 2.5 NNE 7 9 4 5 1027.4 1027.4 0.0
29/09:30am 15.2 14.3 11.2 77 2.1 NNE 7 9 4 5 1027.3 1027.3 0.0
29/09:00am 14.9 14.4 11.9 82 1.6 NE 6 9 3 5 1027.2 1027.2 0.2
29/08:30am 14.4 13.3 12.1 86 1.2 NE 9 11 5 6 1027.0 1027.0 0.2
29/08:00am 13.9 13.8 12.1 89 1.0 S 4 7 2 4 1026.9 1026.9 0.2
29/07:30am 13.9 12.8 12.1 89 1.0 SW 9 11 5 6 1026.6 1026.6 0.2
29/07:00am 13.8 12.8 12.2 90 0.9 ENE 9 9 5 5 1026.1 1026.1 0.2
29/06:30am 13.7 13.2 12.1 90 0.9 NNE 6 7 3 4 1026.0 1026.0 0.2
29/06:00am 13.7 13.0 12.1 90 0.9 NNE 7 9 4 5 1025.9 1025.9 0.2
29/05:30am 13.6 13.1 12.0 90 0.9 N 6 7 3 4 1025.8 1025.7 0.2
29/05:00am 13.7 13.0 12.1 90 0.9 NNE 7 9 4 5 1025.5 1025.4 0.2
29/04:30am 13.7 13.2 11.9 89 1.0 N 6 7 3 4 1025.6 1025.5 0.2
29/04:00am 13.4 12.5 11.5 88 1.0 NE 7 9 4 5 1025.5 1025.4 0.2
29/03:30am 13.9 13.3 11.8 87 1.1 ESE 6 7 3 4 1025.6 1025.5 0.2
29/03:00am 13.9 13.3 11.6 86 1.2 SE 6 7 3 4 1025.7 1025.6 0.2
29/02:30am 14.1 13.3 11.6 85 1.3 SSE 7 11 4 6 1025.9 1025.9 0.2
29/02:00am 14.4 13.8 11.7 84 1.4 E 6 9 3 5 1026.0 1026.0 0.2
29/01:30am 14.4 13.8 11.6 83 1.5 NE 6 7 3 4 1026.0 1026.0 0.2
29/01:00am 14.6 13.8 11.6 82 1.6 SE 7 11 4 6 1026.1 1026.1 0.2
29/12:30am 14.7 14.1 11.7 82 1.6 SE 6 7 3 4 1026.3 1026.3 0.2
29/12:00am 14.7 14.0 12.0 84 1.5 SSE 7 9 4 5 1026.5 1026.5 0.2
 
Date/Time
CST
Temp
°C
App
Temp
°C
Dew
Point
°C
Rel
Hum
%
Delta-T
°C
Wind Press
QNH
hPa
Press
MSL
hPa
Rain since
9am
mm
Dir  Spd
km/h
Gust
km/h
Spd
kts
Gust
kts
28/11:30pm 14.5 15.1 11.8 84 1.4 CALM 0 0 0 0 1026.6 1026.6 0.2
28/11:00pm 14.9 14.7 11.7 81 1.7 E 4 7 2 4 1026.8 1026.8 0.2
28/10:30pm 14.9 14.1 11.7 81 1.7 SE 7 11 4 6 1027.0 1027.0 0.2
28/10:00pm 15.2 13.2 11.6 79 1.9 SSW 13 17 7 9 1027.2 1027.2 0.2
28/09:30pm 15.6 14.5 12.0 79 1.9 SW 9 15 5 8 1027.2 1027.2 0.2
28/09:00pm 15.2 14.7 12.2 82 1.6 NNE 6 7 3 4 1027.0 1027.0 0.2
28/08:30pm 15.3 14.6 12.1 81 1.7 N 7 7 4 4 1026.8 1026.8 0.2
28/08:00pm 15.3 14.8 12.1 81 1.7 NNW 6 7 3 4 1026.9 1026.9 0.2
28/07:30pm 15.5 14.4 11.9 79 1.9 N 9 11 5 6 1026.8 1026.8 0.2
28/07:00pm 15.6 15.0 11.6 77 2.2 NW 6 7 3 4 1027.0 1027.0 0.2
28/06:30pm 15.9 15.4 10.7 71 2.7 SW 4 6 2 3 1026.9 1026.9 0.2
28/06:00pm 16.1 15.0 10.6 70 2.9 SSW 7 9 4 5 1026.8 1026.8 0.2
28/05:30pm 16.2 13.8 10.1 67 3.2 SSW 13 20 7 11 1026.8 1026.8 0.2
28/05:00pm 16.9 13.9 10.5 66 3.4 SW 17 22 9 12 1026.8 1026.8 0.2
28/04:30pm 17.2 14.2 10.6 65 3.5 SW 17 22 9 12 1026.6 1026.6 0.2
28/04:00pm 17.6 14.9 10.2 62 3.9 SW 15 19 8 10 1026.6 1026.6 0.2
28/03:30pm 17.5 15.3 10.9 65 3.5 S 13 17 7 9 1026.5 1026.5 0.2
28/03:00pm 17.8 15.5 11.6 67 3.4 SSW 15 20 8 11 1026.6 1026.6 0.2
28/02:30pm 17.6 15.8 12.1 70 3.0 S 13 17 7 9 1026.7 1026.7 0.2
28/02:00pm 18.4 14.3 10.0 58 4.5 WSW 22 28 12 15 1026.8 1026.8 0.2
28/01:30pm 17.7 15.5 12.2 70 3.0 SSW 15 24 8 13 1027.0 1027.0 0.2
28/01:00pm 16.5 15.0 13.0 80 1.9 SSE 13 19 7 10 1027.4 1027.4 0.2
28/12:30pm 16.8 14.4 12.7 77 2.3 SW 17 24 9 13 1027.8 1027.8 0.2
28/12:00pm 16.8 17.0 12.9 78 2.2 NE 4 7 2 4 1028.2 1028.2 0.2
28/11:30am 16.2 16.2 13.5 84 1.5 ENE 6 11 3 6 1028.6 1028.6 0.2
28/11:01am 15.3 14.7 13.5 89 1.0 NE 9 11 5 6 1028.8 1028.8 0.2
28/11:00am 15.1 14.4 13.1 88 1.1 NE 9 11 5 6 1028.8 1028.8 0.2
28/10:30am 14.5 14.2 12.7 89 1.0 NNE 6 9 3 5 1029.1 1029.1 0.0
28/10:29am 14.6 14.3 12.8 89 1.0 NNE 6 9 3 5 1029.1 1029.1 0.0
28/10:03am 15.1 14.1 13.5 90 0.9 NE 11 15 6 8 1028.8 1028.8 0.0
28/10:00am 14.8 13.7 13.2 90 0.9 NE 11 17 6 9 1028.8 1028.8 0.0
28/09:30am 14.0 12.8 12.9 93 0.6 NE 11 13 6 7 1028.9 1028.9 0.0
28/09:14am 13.7 12.0 12.6 93 0.6 NE 13 15 7 8 1028.9 1028.9 0.0
28/09:10am 13.6 11.9 12.5 93 0.6 NE 13 15 7 8 1028.9 1028.9 0.0
28/09:00am 13.5 11.8 12.4 93 0.6 NE 13 15 7 8 1028.9 1028.9 3.8
28/08:58am 13.5 11.8 12.4 93 0.6 NE 13 15 7 8 1028.9 1028.9 3.8
28/08:49am 13.4 11.7 12.5 94 0.5 NE 13 15 7 8 1028.9 1028.9 3.8
28/08:30am 12.9 11.4 11.8 93 0.6 NE 11 13 6 7 1028.9 1028.9 3.8
28/08:16am 12.9 11.4 11.8 93 0.6 NE 11 13 6 7 1028.8 1028.8 3.8
28/08:00am 12.8 11.6 11.7 93 0.6 NE 9 13 5 7 1028.6 1028.6 3.6
28/07:30am 12.8 11.3 11.9 94 0.5 NE 11 15 6 8 1028.2 1028.2 3.6
28/07:00am 12.5 10.9 11.6 94 0.5 NNE 11 15 6 8 1028.1 1028.1 3.6
28/06:30am 12.5 11.3 11.6 94 0.5 NNE 9 11 5 6 1027.8 1027.8 3.6
28/06:00am 12.5 11.6 11.4 93 0.6 NNE 7 11 4 6 1027.6 1027.6 3.4
28/05:30am 12.7 11.5 11.6 93 0.6 NE 9 11 5 6 1027.4 1027.4 3.4
28/05:00am 12.7 11.9 11.6 93 0.6 N 7 9 4 5 1027.3 1027.3 3.4
28/04:30am 12.7 11.9 11.6 93 0.6 ENE 7 11 4 6 1027.1 1027.1 3.4
28/04:00am 12.7 11.5 11.6 93 0.6 NE 9 13 5 7 1026.9 1026.9 3.4
28/03:55am 12.7 11.1 11.6 93 0.6 NNE 11 13 6 7 1026.9 1026.9 3.2
28/03:30am 12.7 12.8 11.6 93 0.6 NW 2 9 1 5 1027.2 1027.2 3.2
28/03:00am 12.5 11.2 11.4 93 0.6 NNE 9 11 5 6 1027.2 1027.2 2.6
28/02:53am 12.5 11.6 11.4 93 0.6 NNE 7 11 4 6 1027.2 1027.2 2.4
28/02:30am 12.5 11.2 11.4 93 0.6 NNE 9 11 5 6 1027.3 1027.3 1.8
28/02:00am 12.5 10.5 11.4 93 0.6 NNE 13 15 7 8 1027.4 1027.4 1.6
28/01:30am 12.5 10.4 11.2 92 0.7 NNE 13 15 7 8 1027.5 1027.5 1.6
28/01:17am 12.6 11.3 11.3 92 0.7 ENE 9 11 5 6 1027.7 1027.7 1.6
28/01:00am 12.7 11.4 11.4 92 0.7 NE 9 11 5 6 1027.7 1027.7 1.2
28/12:30am 12.7 11.4 11.4 92 0.7 NE 9 11 5 6 1027.6 1027.6 0.6
28/12:00am 12.8 11.2 11.4 91 0.7 NNE 11 15 6 8 1027.8 1027.8 0.6
 
Date/Time
CST
Temp
°C
App
Temp
°C
Dew
Point
°C
Rel
Hum
%
Delta-T
°C
Wind Press
QNH
hPa
Press
MSL
hPa
Rain since
9am
mm
Dir  Spd
km/h
Gust
km/h
Spd
kts
Gust
kts
27/11:30pm 12.9 11.7 11.5 91 0.7 NNE 9 13 5 7 1028.0 1028.0 0.6
27/11:00pm 13.0 12.2 11.6 91 0.7 NE 7 9 4 5 1028.0 1028.0 0.6
27/10:30pm 13.1 11.8 11.3 89 0.9 NNE 9 11 5 6 1028.1 1028.1 0.6
27/10:00pm 13.0 11.7 11.1 88 1.0 NE 9 11 5 6 1028.0 1028.0 0.6
27/09:30pm 13.3 12.3 11.0 86 1.2 E 7 9 4 5 1028.2 1028.2 0.6
27/09:00pm 13.6 13.2 11.0 84 1.4 SE 4 9 2 5 1028.1 1028.1 0.2
27/08:30pm 13.7 13.0 10.1 79 1.9 N 4 7 2 4 1028.0 1028.0 0.2
27/08:00pm 14.0 12.9 10.0 77 2.1 NE 6 7 3 4 1027.9 1027.9 0.0
27/07:30pm 13.8 12.7 10.0 78 2.0 NW 6 7 3 4 1027.7 1027.7 0.0
27/07:00pm 14.0 12.3 10.0 77 2.1 WNW 9 11 5 6 1027.7 1027.7 0.0
27/06:30pm 14.4 12.6 9.4 72 2.5 WSW 9 11 5 6 1027.5 1027.5 0.0
27/06:00pm 14.7 11.4 9.5 71 2.7 SW 17 20 9 11 1027.4 1027.4 0.0
27/05:30pm 15.5 11.6 8.5 63 3.5 SSW 19 22 10 12 1027.2 1027.2 0.0
27/05:00pm 15.7 12.1 8.4 62 3.7 SSW 17 24 9 13 1027.0 1027.0 0.0
27/04:30pm 15.9 11.2 7.9 59 4.0 SSW 22 28 12 15 1027.1 1027.1 0.0
27/04:00pm 16.3 11.0 7.0 54 4.6 SW 24 30 13 16 1026.9 1026.9 0.0
27/03:30pm 16.6 11.4 7.3 54 4.6 SW 24 30 13 16 1026.9 1026.9 0.0
27/03:00pm 17.0 11.3 6.5 50 5.1 SW 26 35 14 19 1026.7 1026.7 0.0
27/02:30pm 17.3 12.0 6.8 50 5.2 SW 24 28 13 15 1026.8 1026.8 0.0
27/02:00pm 17.3 12.8 5.9 47 5.6 SSW 19 30 10 16 1026.6 1026.6 0.0
27/01:30pm 17.4 13.6 7.7 53 4.9 SW 17 28 9 15 1026.7 1026.7 0.0
27/01:00pm 15.8 13.1 9.0 64 3.5 S 13 19 7 10 1027.2 1027.2 0.0
27/12:34pm 14.1 11.1 9.3 73 2.5 S 15 32 8 17 1027.6 1027.6 0.0
27/12:30pm 15.4 13.6 9.5 68 3.0 S 9 13 5 7 1027.6 1027.6 0.0
27/12:00pm 14.3 10.8 8.9 70 2.7 SW 17 24 9 13 1028.3 1028.3 0.0
27/11:30am 14.4 12.7 8.4 67 3.0 W 7 11 4 6 1028.4 1028.4 0.0
27/11:00am 14.8 12.0 8.7 67 3.1 NNW 13 17 7 9 1028.7 1028.7 0.0
27/10:30am 13.9 11.6 8.9 72 2.5 NW 11 15 6 8 1029.1 1029.1 0.0
27/10:00am 14.1 12.0 8.3 68 2.9 NW 9 15 5 8 1029.2 1029.2 0.0
27/09:30am 13.5 12.5 8.8 73 2.3 WNW 4 9 2 5 1029.2 1029.2 0.0
27/09:00am 12.1 9.3 8.4 78 1.8 NW 13 17 7 9 1029.2 1029.2 0.0
27/08:30am 11.1 9.6 8.3 83 1.4 SE 6 9 3 5 1028.9 1028.9 0.0
27/08:00am 10.6 8.1 8.0 84 1.3 NE 11 13 6 7 1028.4 1028.4 0.0
27/07:30am 10.4 8.7 7.5 82 1.4 N 6 9 3 5 1028.2 1028.2 0.0
27/07:00am 10.0 7.3 7.4 84 1.2 ENE 11 15 6 8 1027.7 1027.7 0.0
27/06:30am 9.7 7.3 7.1 84 1.2 NNE 9 13 5 7 1027.5 1027.5 0.0
27/06:00am 9.8 7.9 6.9 82 1.4 NNW 6 7 3 4 1027.6 1027.6 0.0
27/05:30am 9.6 7.2 6.9 83 1.3 NE 9 11 5 6 1027.1 1027.1 0.0
27/05:00am 9.4 6.9 6.5 82 1.3 NE 9 11 5 6 1026.8 1026.8 0.0
27/04:30am 9.3 6.4 6.4 82 1.3 NE 11 15 6 8 1026.5 1026.5 0.0
27/04:00am 9.2 6.3 6.3 82 1.3 NE 11 13 6 7 1026.4 1026.4 0.0
27/03:30am 9.1 6.6 6.4 83 1.2 NE 9 11 5 6 1026.3 1026.3 0.0
27/03:00am 9.0 6.8 6.4 84 1.2 NNE 7 9 4 5 1026.2 1026.2 0.0
27/02:30am 8.3 6.3 6.1 86 1.0 NNE 6 9 3 5 1026.3 1026.3 0.0
27/02:00am 7.6 6.5 5.1 84 1.1 CALM 0 0 0 0 1026.4 1026.4 0.0
27/01:30am 8.3 7.2 5.2 81 1.4 CALM 0 0 0 0 1026.4 1026.4 0.0
27/01:00am 8.6 7.5 5.2 79 1.5 CALM 0 0 0 0 1026.1 1026.1 0.0
27/12:30am 9.1 8.0 5.1 76 1.8 CALM 0 6 0 3 1026.1 1026.1 0.0
27/12:00am 9.4 6.8 5.9 79 1.6 NNW 9 9 5 5 1026.1 1026.1 0.0
 
Date/Time
CST
Temp
°C
App
Temp
°C
Dew
Point
°C
Rel
Hum
%
Delta-T
°C
Wind Press
QNH
hPa
Press
MSL
hPa
Rain since
9am
mm
Dir  Spd
km/h
Gust
km/h
Spd
kts
Gust
kts
26/11:30pm 10.1 7.9 5.5 73 2.1 ENE 6 7 3 4 1026.1 1026.1 0.0
26/11:00pm 9.6 7.5 4.0 68 2.5 ENE 4 9 2 5 1026.0 1026.0 0.0
26/10:30pm 11.1 8.1 4.3 63 3.0 SSE 9 11 5 6 1026.0 1026.0 0.0
26/10:00pm 11.3 8.4 4.5 63 3.1 S 9 13 5 7 1026.0 1026.0 0.0
26/09:30pm 11.0 8.1 4.5 64 2.9 SSE 9 13 5 7 1026.0 1026.0 0.0
26/09:00pm 11.2 8.3 4.4 63 3.0 S 9 11 5 6 1025.6 1025.5 0.0
26/08:30pm 11.5 8.9 4.0 60 3.3 SSE 7 11 4 6 1025.5 1025.4 0.0
26/08:00pm 12.2 9.2 4.2 58 3.6 SSE 9 13 5 7 1025.3 1025.2 0.0
26/07:30pm 12.6 9.5 3.8 55 3.9 SSE 9 15 5 8 1025.2 1025.1 0.0
26/07:00pm 12.9 9.1 3.8 54 4.1 S 13 22 7 12 1024.8 1024.7 0.0
26/06:30pm 13.2 9.9 4.4 55 4.0 S 11 17 6 9 1024.3 1024.2 0.0
26/06:00pm 13.4 9.6 4.0 53 4.2 S 13 19 7 10 1024.1 1024.0 0.0
26/05:30pm 13.6 9.3 3.4 50 4.6 SSE 15 20 8 11 1023.4 1023.3 0.0
26/05:00pm 13.8 8.6 3.3 49 4.7 S 20 33 11 18 1023.6 1023.5 0.0
26/04:30pm 14.4 9.4 3.5 48 4.9 S 19 26 10 14 1023.2 1023.1 0.0
26/04:00pm 14.6 10.1 4.0 49 4.9 SSE 17 28 9 15 1023.2 1023.1 0.0
26/03:30pm 15.0 9.1 4.1 48 5.0 S 24 33 13 18 1022.9 1022.8 0.0
26/03:00pm 15.6 8.1 3.7 45 5.4 SSW 32 43 17 23 1022.6 1022.5 0.0
26/02:30pm 14.8 8.8 5.1 52 4.5 SSW 26 35 14 19 1022.5 1022.4 0.0
26/02:00pm 14.6 7.8 4.9 52 4.5 SSW 30 37 16 20 1022.5 1022.4 0.0
26/01:42pm 14.7 7.5 5.0 52 4.5 SSW 32 56 17 30 1022.0 1021.9 0.0
26/01:39pm 14.9 8.8 4.9 51 4.7 S 26 48 14 26 1021.9 1021.8 0.0
26/01:30pm 15.6 10.2 4.3 47 5.2 S 22 30 12 16 1021.9 1021.8 0.0
26/01:07pm 16.7 10.0 3.7 42 6.0 SSW 28 48 15 26 1021.6 1021.5 0.0
26/01:00pm 16.1 10.5 3.5 43 5.8 S 22 32 12 17 1021.8 1021.7 0.0
26/12:30pm 16.2 9.9 3.9 44 5.7 S 26 41 14 22 1021.8 1021.7 0.0
26/12:00pm 15.5 6.9 2.7 42 5.7 SSW 37 48 20 26 1021.9 1021.8 0.0
26/11:47am 15.9 9.2 3.4 43 5.7 SSW 28 50 15 27 1021.8 1021.7 0.0
26/11:30am 15.5 10.5 4.6 48 5.1 S 20 30 11 16 1022.1 1022.0 0.0

Other Formats:

Comma delimited format used in spreadsheet applications
http://www.bom.gov.au/fwo/IDS60801/IDS60801.95676.axf

JavaScript Object Notation format (JSON) in row-major order
http://www.bom.gov.au/fwo/IDS60801/IDS60801.95676.json